Almirante Gago Coutinho — CTHA — position and weather

sailwx.info

Track history (hours):
 
Tides and Currents Weather Stations Pressure Air Temp Water Temp Dewpoint Dewpoint Depression Visibility Wind Speed Wind Dir Waves Ship Positions

Oceanographic research ship Almirante Gago Coutinho (Portugal)

Detailed information on ship capabilities available from University of Delaware's Ocean Information Center.

Last reported at 2017-Apr-21 18:00 UTC. Time now 2017-Apr-29 05:51 UTC.
Position N 30°06' W 015°48'.

Length 17 m; draft 5.3 m.

MMSI: 263145000.

Wind from 350 at 8 knots

Barometer 1018.0 mb
Air temperature 23.0 ° C
Visibility: greater than 10.8 NM
Dewpoint 16.9 ° C
Water temperature 19.0 ° C

Date/timePositionNaut miles runAvg speedWind from/ knotsBaromVisibWave heightAir tempDewpointWater temp
2017-Apr-21 18:00N 30°06' W 015°48'94 3.9 350 / 81018.010.8 23.016.919.0
2017-Apr-20 18:00N 31°24' W 016°48'   290 / 151013.010.8 20.016.920.0
2017-Apr-18 12:31N 30°12' W 016°03'0 8.8
2017-Apr-18 12:30N 30°12' W 016°03'5 8.6
2017-Apr-18 11:58N 30°09' W 015°58'4 8.3
2017-Apr-18 11:30N 30°08' W 015°54'2 3.1
2017-Apr-18 11:00N 30°08' W 015°52'0 0.0
2017-Apr-18 10:30N 30°08' W 015°52'0 0.0
2017-Apr-18 09:59N 30°08' W 015°52'0 0.0
2017-Apr-18 09:30N 30°08' W 015°52'0 0.0
2017-Apr-18 08:56N 30°08' W 015°52'0 0.0
2017-Apr-18 08:24N 30°08' W 015°52'0 0.0
2017-Apr-18 08:00N 30°08' W 015°52'0 0.0
2017-Apr-18 07:30N 30°08' W 015°52'0 0.1
2017-Apr-18 07:00N 30°08' W 015°52'0 0.0
2017-Apr-18 06:30N 30°08' W 015°52'2 4.1
2017-Apr-18 06:00N 30°08' W 015°55'1 1.4
2017-Apr-18 05:30N 30°07' W 015°54'2 4.3
2017-Apr-18 05:00N 30°05' W 015°53'2 4.8
2017-Apr-18 04:30N 30°06' W 015°56'2 4.0
2017-Apr-18 04:00N 30°06' W 015°58'3 4.5
2017-Apr-18 03:23N 30°04' W 015°56'2 4.2
2017-Apr-18 03:00N 30°05' W 015°58'2 4.0
2017-Apr-18 02:29N 30°05' W 016°00'2 4.7
2017-Apr-18 02:00N 30°05' W 016°03'2 3.5
2017-Apr-18 01:30N 30°04' W 016°04'2 3.9
2017-Apr-18 01:00N 30°02' W 016°05'0 0.8
2017-Apr-18 00:30N 30°02' W 016°05'2 4.0
2017-Apr-18 00:00N 30°03' W 016°04'2 3.8
2017-Apr-17 23:30N 30°05' W 016°03'2 3.7
2017-Apr-17 23:00N 30°04' W 016°01'2 3.5
2017-Apr-17 22:30N 30°05' W 015°59'3 5.6
2017-Apr-17 22:00N 30°07' W 015°57'1 2.0
2017-Apr-17 21:30N 30°07' W 015°56'1 2.6
2017-Apr-17 21:00N 30°06' W 015°55'2 1.6
2017-Apr-17 20:01N 30°05' W 015°54'0 2.9
2017-Apr-17 20:00N 30°05' W 015°54'2 4.8
2017-Apr-17 19:30N 30°07' W 015°54'2 3.1
2017-Apr-17 19:00N 30°08' W 015°52'0 0.0
2017-Apr-17 18:30N 30°08' W 015°52'0 0.0
2017-Apr-17 17:57N 30°08' W 015°52'0 0.0
2017-Apr-17 17:30N 30°08' W 015°52'0 0.0
2017-Apr-17 17:00N 30°08' W 015°52'0 0.0
2017-Apr-17 16:30N 30°08' W 015°52'0 0.0
2017-Apr-17 16:00N 30°08' W 015°52'0 0.0
2017-Apr-17 15:30N 30°08' W 015°52'0 0.0
2017-Apr-17 15:00N 30°08' W 015°52'0 0.0
2017-Apr-17 14:30N 30°08' W 015°52'0 0.0
2017-Apr-17 13:30N 30°08' W 015°52'0 0.0
2017-Apr-17 13:00N 30°08' W 015°52'0 0.0
2017-Apr-17 12:30N 30°08' W 015°52'0 0.0
2017-Apr-17 12:00N 30°08' W 015°52'0 0.0
2017-Apr-17 11:28N 30°08' W 015°52'0 0.0
2017-Apr-17 10:42N 30°08' W 015°52'0 0.0
2017-Apr-17 10:25N 30°08' W 015°52'0 0.0
2017-Apr-17 10:00N 30°08' W 015°52'1 0.4
2017-Apr-17 07:45N 30°08' W 015°53'15 8.5
2017-Apr-17 06:00N 30°18' W 016°06'4 5.9 360 / 31011.010.8 20.018.519.0
2017-Apr-17 05:18N 30°21' W 016°09'3 8.6
2017-Apr-17 05:00N 30°23' W 016°11'4 8.4
2017-Apr-17 04:30N 30°26' W 016°14'5 8.1
2017-Apr-17 03:52N 30°31' W 016°17'3 8.3
2017-Apr-17 03:30N 30°34' W 016°18'4 8.2
2017-Apr-17 03:00N 30°38' W 016°20'4 8.2
2017-Apr-17 02:30N 30°42' W 016°21'4 8.2
2017-Apr-17 02:00N 30°46' W 016°22'28 8.0
2017-Apr-16 22:27N 31°12' W 016°33'4 8.2
2017-Apr-16 22:00N 31°16' W 016°34'4 8.1
2017-Apr-16 21:29N 31°20' W 016°35'4 8.2
2017-Apr-16 21:00N 31°24' W 016°36'11 7.4
2017-Apr-16 19:30N 31°34' W 016°40'8 5.2
2017-Apr-16 18:00N 31°42' W 016°42'16 9.3 080 / 191014.010.8 22.019.019.0
2017-Apr-16 16:19N 31°55' W 016°52'2 7.6
2017-Apr-16 16:00N 31°57' W 016°54'3 6.8
2017-Apr-16 15:30N 32°00' W 016°56'11 6.8
2017-Apr-16 13:48N 32°10' W 017°02'2 6.8
2017-Apr-16 13:29N 32°12' W 017°03'27 6.4
2017-Apr-16 09:14N 32°38' W 016°54'0 1.8
2017-Apr-16 09:00N 32°39' W 016°55'  
2017-Apr-12 22:20N 30°30' W 015°59'4 8.9
2017-Apr-12 21:56N 30°26' W 015°59'4 9.0
2017-Apr-12 21:28N 30°22' W 015°58'11 8.7
2017-Apr-12 20:13N 30°11' W 015°55'3 8.8
2017-Apr-12 19:54N 30°09' W 015°54'1 1.7
2017-Apr-12 19:04N 30°08' W 015°52'0 0.0
2017-Apr-12 18:49N 30°08' W 015°52'1 4.0
2017-Apr-12 18:29N 30°08' W 015°54'4 8.5
2017-Apr-12 18:00N 30°05' W 015°57'4 9.0
2017-Apr-12 17:30N 30°02' W 016°01'1 1.1
2017-Apr-12 17:00N 30°02' W 016°02'0 0.0
2017-Apr-12 15:26N 30°02' W 016°02'0 0.0
2017-Apr-12 15:00N 30°02' W 016°02'0 0.0
2017-Apr-12 13:29N 30°02' W 016°02'0 0.0
2017-Apr-12 12:15N 30°02' W 016°02'0 0.0
2017-Apr-12 11:29N 30°02' W 016°02'10 1.4
2017-Apr-12 04:18N 30°07' W 015°52'  
Track history (hours):
 
Tides and Currents Weather Stations Pressure Air Temp Water Temp Dewpoint Dewpoint Depression Visibility Wind Speed Wind Dir Waves Ship Positions

Oceanographic research ship Almirante Gago Coutinho (Portugal)

Detailed information on ship capabilities available from University of Delaware's Ocean Information Center.

Last reported at 2017-Apr-21 18:00 UTC. Time now 2017-Apr-29 05:51 UTC.
Position N 30°06' W 015°48'.

Length 17 m; draft 5.3 m.

MMSI: 263145000.

Wind from 350 at 8 knots

Barometer 1018.0 mb
Air temperature 23.0 ° C
Visibility: greater than 10.8 NM
Dewpoint 16.9 ° C
Water temperature 19.0 ° C

Date/timePositionNaut miles runAvg speedWind from/ knotsBaromVisibWave heightAir tempDewpointWater temp
2017-Apr-21 18:00N 30°06' W 015°48'94 3.9 350 / 81018.010.8 23.016.919.0
2017-Apr-20 18:00N 31°24' W 016°48'   290 / 151013.010.8 20.016.920.0
2017-Apr-18 12:31N 30°12' W 016°03'0 8.8
2017-Apr-18 12:30N 30°12' W 016°03'5 8.6
2017-Apr-18 11:58N 30°09' W 015°58'4 8.3
2017-Apr-18 11:30N 30°08' W 015°54'2 3.1
2017-Apr-18 11:00N 30°08' W 015°52'0 0.0
2017-Apr-18 10:30N 30°08' W 015°52'0 0.0
2017-Apr-18 09:59N 30°08' W 015°52'0 0.0
2017-Apr-18 09:30N 30°08' W 015°52'0 0.0
2017-Apr-18 08:56N 30°08' W 015°52'0 0.0
2017-Apr-18 08:24N 30°08' W 015°52'0 0.0
2017-Apr-18 08:00N 30°08' W 015°52'0 0.0
2017-Apr-18 07:30N 30°08' W 015°52'0 0.1
2017-Apr-18 07:00N 30°08' W 015°52'0 0.0
2017-Apr-18 06:30N 30°08' W 015°52'2 4.1
2017-Apr-18 06:00N 30°08' W 015°55'1 1.4
2017-Apr-18 05:30N 30°07' W 015°54'2 4.3
2017-Apr-18 05:00N 30°05' W 015°53'2 4.8
2017-Apr-18 04:30N 30°06' W 015°56'2 4.0
2017-Apr-18 04:00N 30°06' W 015°58'3 4.5
2017-Apr-18 03:23N 30°04' W 015°56'2 4.2
2017-Apr-18 03:00N 30°05' W 015°58'2 4.0
2017-Apr-18 02:29N 30°05' W 016°00'2 4.7
2017-Apr-18 02:00N 30°05' W 016°03'2 3.5
2017-Apr-18 01:30N 30°04' W 016°04'2 3.9
2017-Apr-18 01:00N 30°02' W 016°05'0 0.8
2017-Apr-18 00:30N 30°02' W 016°05'2 4.0
2017-Apr-18 00:00N 30°03' W 016°04'2 3.8
2017-Apr-17 23:30N 30°05' W 016°03'2 3.7
2017-Apr-17 23:00N 30°04' W 016°01'2 3.5
2017-Apr-17 22:30N 30°05' W 015°59'3 5.6
2017-Apr-17 22:00N 30°07' W 015°57'1 2.0
2017-Apr-17 21:30N 30°07' W 015°56'1 2.6
2017-Apr-17 21:00N 30°06' W 015°55'2 1.6
2017-Apr-17 20:01N 30°05' W 015°54'0 2.9
2017-Apr-17 20:00N 30°05' W 015°54'2 4.8
2017-Apr-17 19:30N 30°07' W 015°54'2 3.1
2017-Apr-17 19:00N 30°08' W 015°52'0 0.0
2017-Apr-17 18:30N 30°08' W 015°52'0 0.0
2017-Apr-17 17:57N 30°08' W 015°52'0 0.0
2017-Apr-17 17:30N 30°08' W 015°52'0 0.0
2017-Apr-17 17:00N 30°08' W 015°52'0 0.0
2017-Apr-17 16:30N 30°08' W 015°52'0 0.0
2017-Apr-17 16:00N 30°08' W 015°52'0 0.0
2017-Apr-17 15:30N 30°08' W 015°52'0 0.0
2017-Apr-17 15:00N 30°08' W 015°52'0 0.0
2017-Apr-17 14:30N 30°08' W 015°52'0 0.0
2017-Apr-17 13:30N 30°08' W 015°52'0 0.0
2017-Apr-17 13:00N 30°08' W 015°52'0 0.0
2017-Apr-17 12:30N 30°08' W 015°52'0 0.0
2017-Apr-17 12:00N 30°08' W 015°52'0 0.0
2017-Apr-17 11:28N 30°08' W 015°52'0 0.0
2017-Apr-17 10:42N 30°08' W 015°52'0 0.0
2017-Apr-17 10:25N 30°08' W 015°52'0 0.0
2017-Apr-17 10:00N 30°08' W 015°52'1 0.4
2017-Apr-17 07:45N 30°08' W 015°53'15 8.5
2017-Apr-17 06:00N 30°18' W 016°06'4 5.9 360 / 31011.010.8 20.018.519.0
2017-Apr-17 05:18N 30°21' W 016°09'3 8.6
2017-Apr-17 05:00N 30°23' W 016°11'4 8.4
2017-Apr-17 04:30N 30°26' W 016°14'5 8.1
2017-Apr-17 03:52N 30°31' W 016°17'3 8.3
2017-Apr-17 03:30N 30°34' W 016°18'4 8.2
2017-Apr-17 03:00N 30°38' W 016°20'4 8.2
2017-Apr-17 02:30N 30°42' W 016°21'4 8.2
2017-Apr-17 02:00N 30°46' W 016°22'28 8.0
2017-Apr-16 22:27N 31°12' W 016°33'4 8.2
2017-Apr-16 22:00N 31°16' W 016°34'4 8.1
2017-Apr-16 21:29N 31°20' W 016°35'4 8.2
2017-Apr-16 21:00N 31°24' W 016°36'11 7.4
2017-Apr-16 19:30N 31°34' W 016°40'8 5.2
2017-Apr-16 18:00N 31°42' W 016°42'16 9.3 080 / 191014.010.8 22.019.019.0
2017-Apr-16 16:19N 31°55' W 016°52'2 7.6
2017-Apr-16 16:00N 31°57' W 016°54'3 6.8
2017-Apr-16 15:30N 32°00' W 016°56'11 6.8
2017-Apr-16 13:48N 32°10' W 017°02'2 6.8
2017-Apr-16 13:29N 32°12' W 017°03'27 6.4
2017-Apr-16 09:14N 32°38' W 016°54'0 1.8
2017-Apr-16 09:00N 32°39' W 016°55'  
2017-Apr-12 22:20N 30°30' W 015°59'4 8.9
2017-Apr-12 21:56N 30°26' W 015°59'4 9.0
2017-Apr-12 21:28N 30°22' W 015°58'11 8.7
2017-Apr-12 20:13N 30°11' W 015°55'3 8.8
2017-Apr-12 19:54N 30°09' W 015°54'1 1.7
2017-Apr-12 19:04N 30°08' W 015°52'0 0.0
2017-Apr-12 18:49N 30°08' W 015°52'1 4.0
2017-Apr-12 18:29N 30°08' W 015°54'4 8.5
2017-Apr-12 18:00N 30°05' W 015°57'4 9.0
2017-Apr-12 17:30N 30°02' W 016°01'1 1.1
2017-Apr-12 17:00N 30°02' W 016°02'0 0.0
2017-Apr-12 15:26N 30°02' W 016°02'0 0.0
2017-Apr-12 15:00N 30°02' W 016°02'0 0.0
2017-Apr-12 13:29N 30°02' W 016°02'0 0.0
2017-Apr-12 12:15N 30°02' W 016°02'0 0.0
2017-Apr-12 11:29N 30°02' W 016°02'10 1.4
2017-Apr-12 04:18N 30°07' W 015°52'  

Dump ship's entire track history